createdAt,value
2019-04-20T00:04:20.517Z,77.60
2019-04-20T00:09:24.624Z,78.00
2019-04-20T00:14:30.914Z,78.20
2019-04-20T00:19:40.455Z,78.90
2019-04-20T00:25:04.240Z,78.60
2019-04-20T00:30:28.746Z,78.60
2019-04-20T00:35:12.452Z,78.70
2019-04-20T00:40:19.432Z,78.70
2019-04-20T00:45:30.170Z,79.60
2019-04-20T00:50:49.112Z,80.20
2019-04-20T00:55:41.065Z,81.10
2019-04-20T01:01:08.990Z,81.90
2019-04-20T01:06:22.211Z,82.70
2019-04-20T01:11:16.630Z,83.10
2019-04-20T01:16:33.354Z,82.60
2019-04-20T01:21:31.724Z,82.60
2019-04-20T01:26:44.602Z,82.80
2019-04-20T01:31:57.118Z,83.50
2019-04-20T01:37:10.503Z,82.80
2019-04-20T01:42:00.342Z,82.70
2019-04-20T01:47:08.287Z,82.40
2019-04-20T01:52:20.262Z,83.70
2019-04-20T01:57:54.543Z,84.50
2019-04-20T02:02:50.404Z,84.70
2019-04-20T02:07:55.369Z,84.60
2019-04-20T02:13:03.038Z,84.00
2019-04-20T02:18:26.153Z,83.90
2019-04-20T02:23:29.398Z,83.70
2019-04-20T02:28:46.500Z,83.90
2019-04-20T02:34:03.860Z,83.90
2019-04-20T02:39:31.046Z,84.10
2019-04-20T02:49:52.375Z,84.50
2019-04-20T02:54:48.707Z,84.50
2019-04-20T03:04:37.146Z,85.20
2019-04-20T03:09:50.149Z,86.10
2019-04-20T03:14:58.400Z,85.20
2019-04-20T03:20:03.309Z,85.90
2019-04-20T03:25:36.062Z,86.00
2019-04-20T03:36:18.136Z,86.00
2019-04-20T03:41:12.072Z,86.50
2019-04-20T03:46:11.158Z,87.10
2019-04-20T03:51:40.071Z,87.30
2019-04-20T03:57:14.766Z,86.10
2019-04-20T04:02:54.679Z,86.30
2019-04-20T04:07:33.460Z,87.10
2019-04-20T04:13:14.811Z,87.50
2019-04-20T04:18:29.746Z,88.00
2019-04-20T04:23:49.092Z,88.30
2019-04-20T04:28:56.345Z,88.90
2019-04-20T04:34:04.856Z,88.60
2019-04-20T04:39:15.435Z,88.80
2019-04-20T04:44:14.539Z,89.30
2019-04-20T04:49:19.539Z,88.90
2019-04-20T04:54:30.551Z,89.70
2019-04-20T04:59:25.705Z,89.90
2019-04-20T05:05:29.400Z,90.10
2019-04-20T05:10:16.014Z,90.30
2019-04-20T05:15:39.373Z,90.00
2019-04-20T05:20:54.809Z,89.70
2019-04-20T05:26:08.318Z,89.80
2019-04-20T05:30:59.899Z,89.40
2019-04-20T05:36:24.771Z,90.10
2019-04-20T05:41:28.587Z,90.00
2019-04-20T05:46:36.261Z,90.00
2019-04-20T05:51:44.397Z,90.10
2019-04-20T05:57:00.766Z,90.40
2019-04-20T06:02:03.514Z,90.40
2019-04-20T06:07:11.069Z,90.40
2019-04-20T06:12:28.523Z,90.30
2019-04-20T06:17:50.297Z,90.50
2019-04-20T06:23:05.539Z,90.60
2019-04-20T06:28:02.026Z,90.60
2019-04-20T06:34:19.621Z,90.70
2019-04-20T06:39:01.979Z,90.60
2019-04-20T06:44:08.800Z,90.40
2019-04-20T06:49:24.363Z,90.10
2019-04-20T06:54:55.169Z,90.50
2019-04-20T07:00:08.798Z,90.50
2019-04-20T07:05:12.807Z,90.40
2019-04-20T07:15:25.521Z,90.70
2019-04-20T07:21:07.259Z,90.70
2019-04-20T07:26:22.364Z,90.60
2019-04-20T07:31:23.015Z,90.40
2019-04-20T07:36:40.275Z,90.40
2019-04-20T07:42:00.622Z,89.70
2019-04-20T07:47:08.993Z,90.00
2019-04-20T07:51:37.477Z,89.40
2019-04-20T07:57:01.533Z,89.10
2019-04-20T08:02:33.612Z,88.50
2019-04-20T08:07:13.842Z,88.30
2019-04-20T08:13:02.232Z,87.40
2019-04-20T08:23:13.036Z,84.70
2019-04-20T08:28:25.044Z,83.40
2019-04-20T08:33:55.493Z,82.40
2019-04-20T08:39:13.622Z,81.00
2019-04-20T08:44:18.732Z,79.80
2019-04-20T08:49:12.921Z,80.00
2019-04-20T08:54:16.447Z,79.00
2019-04-20T08:59:06.725Z,76.10
2019-04-20T09:04:19.913Z,75.70
2019-04-20T09:09:49.660Z,75.50
2019-04-20T09:14:32.128Z,74.80
2019-04-20T09:19:49.113Z,74.10
2019-04-20T09:25:13.342Z,74.10
2019-04-20T09:30:17.365Z,73.00
2019-04-20T09:35:20.918Z,72.70
2019-04-20T09:40:40.500Z,71.70
2019-04-20T09:45:47.382Z,71.20
2019-04-20T09:51:11.702Z,72.00
2019-04-20T09:56:18.107Z,69.20
2019-04-20T10:01:19.147Z,69.20
2019-04-20T10:06:17.963Z,69.00
2019-04-20T10:11:23.611Z,68.80
2019-04-20T10:16:29.600Z,68.80
2019-04-20T10:21:35.985Z,68.50
2019-04-20T10:26:42.750Z,68.20
2019-04-20T10:31:55.809Z,67.70
2019-04-20T10:37:17.630Z,67.10
2019-04-20T10:42:23.870Z,66.20
2019-04-20T10:47:30.135Z,65.80
2019-04-20T10:52:36.193Z,65.10
2019-04-20T10:57:42.160Z,63.70
2019-04-20T11:02:49.650Z,62.40
2019-04-20T11:07:56.788Z,61.20
2019-04-20T11:13:03.322Z,61.00
2019-04-20T11:18:09.501Z,59.80
2019-04-20T11:23:16.111Z,58.90
2019-04-20T11:28:22.201Z,58.70
2019-04-20T11:33:28.410Z,58.90
2019-04-20T11:38:35.216Z,58.20
2019-04-20T11:43:41.935Z,57.00
2019-04-20T11:48:49.520Z,56.40
2019-04-20T11:53:56.446Z,55.70
2019-04-20T11:59:05.321Z,55.00
2019-04-20T12:04:26.088Z,54.80
2019-04-20T12:09:21.488Z,54.70
2019-04-20T12:14:28.424Z,54.10
2019-04-20T12:19:36.179Z,53.40
2019-04-20T12:24:42.348Z,53.40
2019-04-20T12:29:49.793Z,52.10
2019-04-20T12:34:58.203Z,51.00
2019-04-20T12:40:05.025Z,50.70
2019-04-20T12:45:11.909Z,50.50
2019-04-20T12:50:19.349Z,49.90
2019-04-20T12:55:26.397Z,49.20
2019-04-20T13:00:43.728Z,49.20
2019-04-20T13:05:50.182Z,49.10
2019-04-20T13:11:00.395Z,48.60
2019-04-20T13:16:30.365Z,48.10
2019-04-20T13:21:36.798Z,48.10
2019-04-20T13:26:42.911Z,47.20
2019-04-20T13:31:52.030Z,46.50
2019-04-20T13:36:57.923Z,46.60
2019-04-20T13:42:12.233Z,45.50
2019-04-20T13:47:12.770Z,45.00
2019-04-20T13:52:18.904Z,45.70
2019-04-20T13:57:31.645Z,45.40
2019-04-20T14:02:49.322Z,45.60
2019-04-20T14:07:57.579Z,45.10
2019-04-20T14:13:11.260Z,45.20
2019-04-20T14:18:11.547Z,45.20
2019-04-20T14:23:17.392Z,45.30
2019-04-20T14:28:23.408Z,45.00
2019-04-20T14:33:30.730Z,45.40
2019-04-20T14:38:38.212Z,45.20
2019-04-20T14:43:44.746Z,45.60
2019-04-20T14:48:50.861Z,45.60
2019-04-20T14:53:56.929Z,45.70
2019-04-20T14:59:21.007Z,45.90
2019-04-20T15:04:28.956Z,46.20
2019-04-20T15:09:37.555Z,46.50
2019-04-20T15:14:43.259Z,46.70
2019-04-20T15:20:01.557Z,46.50
2019-04-20T15:25:09.292Z,46.40
2019-04-20T15:30:16.334Z,45.90
2019-04-20T15:35:23.311Z,46.30
2019-04-20T15:40:31.031Z,45.70
2019-04-20T15:45:37.169Z,45.60
2019-04-20T15:50:43.760Z,45.50
2019-04-20T15:55:50.913Z,45.20
2019-04-20T16:00:58.577Z,44.40
2019-04-20T16:06:07.477Z,44.60
2019-04-20T16:11:15.110Z,44.60
2019-04-20T16:16:21.733Z,44.60
2019-04-20T16:21:31.259Z,44.60
2019-04-20T16:26:39.945Z,44.70
2019-04-20T16:31:48.416Z,44.70
2019-04-20T16:36:56.136Z,44.30
2019-04-20T16:42:02.274Z,44.90
2019-04-20T16:47:08.470Z,45.40
2019-04-20T16:52:14.936Z,45.00
2019-04-20T16:57:21.494Z,44.90
2019-04-20T17:02:27.744Z,44.80
2019-04-20T17:07:37.257Z,44.70
2019-04-20T17:12:43.856Z,44.70
2019-04-20T17:17:51.611Z,44.70
2019-04-20T17:22:58.280Z,44.90
2019-04-20T17:28:42.669Z,44.70
2019-04-20T17:34:01.474Z,44.80
2019-04-20T17:39:06.225Z,44.60
2019-04-20T17:44:30.211Z,44.90
2019-04-20T17:49:31.451Z,44.90
2019-04-20T17:54:40.922Z,44.90
2019-04-20T17:59:55.963Z,44.80
2019-04-20T18:05:33.938Z,44.70
2019-04-20T18:10:36.814Z,44.80
2019-04-20T18:15:40.403Z,44.70
2019-04-20T18:20:48.500Z,44.90
2019-04-20T18:26:18.622Z,44.70
2019-04-20T18:31:11.198Z,44.40
2019-04-20T18:36:23.344Z,44.30
2019-04-20T18:41:34.162Z,44.60
2019-04-20T18:46:55.543Z,45.30
2019-04-20T18:51:39.930Z,45.80
2019-04-20T18:56:50.682Z,46.30
2019-04-20T19:01:54.994Z,46.70
2019-04-20T19:07:01.653Z,47.30
2019-04-20T19:12:11.006Z,47.00
2019-04-20T19:17:45.207Z,46.80
2019-04-20T19:22:42.013Z,46.40
2019-04-20T19:27:52.640Z,47.00
2019-04-20T19:33:14.561Z,47.00
2019-04-20T19:38:12.588Z,47.40
2019-04-20T19:43:20.752Z,48.10
2019-04-20T19:48:36.259Z,47.70
2019-04-20T19:53:48.345Z,48.30
2019-04-20T19:58:45.531Z,48.60
2019-04-20T20:03:41.902Z,49.20
2019-04-20T20:08:56.206Z,48.40
2019-04-20T20:13:57.507Z,48.80
2019-04-20T20:19:12.161Z,49.20
2019-04-20T20:24:14.024Z,49.50
2019-04-20T20:29:28.355Z,48.90
2019-04-20T20:34:33.311Z,48.80
2019-04-20T20:39:38.334Z,49.00
2019-04-20T20:44:51.739Z,49.40
2019-04-20T20:50:13.044Z,49.80
2019-04-20T20:55:06.497Z,49.20
2019-04-20T21:00:19.346Z,49.20
2019-04-20T21:05:15.453Z,48.90
2019-04-20T21:10:25.933Z,48.70
2019-04-20T21:15:30.260Z,49.30
2019-04-20T21:20:55.222Z,49.70
2019-04-20T21:26:03.283Z,49.60
2019-04-20T21:31:14.631Z,49.90
2019-04-20T21:36:22.782Z,49.90
2019-04-20T21:41:27.496Z,50.50
2019-04-20T21:46:40.870Z,50.90
2019-04-20T21:51:49.746Z,51.10
2019-04-20T21:56:56.204Z,51.10
2019-04-20T22:02:04.364Z,50.70
2019-04-20T22:07:05.625Z,51.20
2019-04-20T22:12:12.002Z,51.40
2019-04-20T22:17:23.627Z,51.70
2019-04-20T22:22:42.389Z,52.00
2019-04-20T22:27:35.208Z,52.20
2019-04-20T22:32:44.165Z,52.40
2019-04-20T22:37:59.813Z,52.70
2019-04-20T22:43:04.221Z,52.80
2019-04-20T22:48:12.797Z,53.00
2019-04-20T22:53:33.525Z,53.10
2019-04-20T22:58:40.552Z,53.30
2019-04-20T23:03:34.636Z,53.40
2019-04-20T23:08:40.724Z,53.80
2019-04-20T23:13:48.691Z,54.00
2019-04-20T23:18:54.540Z,54.20
2019-04-20T23:24:06.240Z,54.50
2019-04-20T23:29:09.221Z,54.80
2019-04-20T23:34:19.951Z,55.30
2019-04-20T23:39:29.091Z,55.70
2019-04-20T23:45:09.303Z,56.10
2019-04-20T23:50:37.320Z,56.40
2019-04-20T23:55:23.811Z,56.70
